Time;durP1;ratioP1;P1;durP2;ratioP2;P2;SDS_P1;SDS_P2;PMS_P1;PMS_P2;Temp;Humidity;BMP_temperature;BMP_pressure;BME280_temperature;BME280_humidity;BME280_pressure;Samples;Min_cycle;Max_cycle;Signal;HPM_P1;HPM_P2
2023/11/28 00:02:23;;;;;;;10.32;9.43;;;6.80;99.90;;;6.74;89.17;99803.31;5113401;28;20428;-69
2023/11/28 00:04:52;;;;;;;11.25;10.35;;;6.70;99.90;;;6.82;88.95;99814.66;5113334;28;20114;-70
2023/11/28 00:07:20;;;;;;;11.60;10.60;;;6.80;99.90;;;6.75;89.50;99815.59;5113061;28;20516;-69
2023/11/28 00:09:50;;;;;;;12.02;11.02;;;6.70;99.90;;;6.84;89.30;99828.66;5112983;28;20050;-70
2023/11/28 00:12:19;;;;;;;12.50;11.50;;;6.80;99.90;;;6.78;89.45;99828.69;5113364;28;20100;-70
2023/11/28 00:14:48;;;;;;;12.65;11.55;;;6.80;99.90;;;6.77;89.79;99833.97;5112952;28;20758;-69
2023/11/28 00:17:17;;;;;;;14.13;12.93;;;6.70;99.90;;;6.87;89.59;99847.03;5113262;28;20100;-70
2023/11/28 00:19:45;;;;;;;13.05;11.95;;;6.80;99.90;;;6.83;89.17;99840.03;5113361;28;20046;-70
2023/11/28 00:22:14;;;;;;;13.52;12.32;;;6.80;99.90;;;6.84;89.85;99846.19;5112941;28;20473;-70
2023/11/28 00:24:42;;;;;;;13.27;12.18;;;6.80;99.90;;;6.84;90.01;99851.44;5112867;28;20109;-70
2023/11/28 00:27:12;;;;;;;14.50;13.20;;;6.80;99.90;;;6.97;89.74;99858.34;5113122;28;20044;-69
2023/11/28 00:29:41;;;;;;;13.38;12.18;;;6.80;99.90;;;6.97;89.45;99858.34;5113094;28;20040;-69
2023/11/28 00:32:09;;;;;;;12.98;11.88;;;6.90;99.90;;;6.86;89.21;99866.31;5113085;28;20044;-69
2023/11/28 00:34:37;;;;;;;14.38;13.05;;;6.90;99.90;;;6.76;88.47;99862.00;5113024;28;20127;-69
2023/11/28 00:37:06;;;;;;;14.25;12.93;;;6.80;99.90;;;6.65;89.42;99870.81;5094702;28;20150;-69
2023/11/28 00:39:35;;;;;;;13.32;12.20;;;6.60;99.90;;;6.66;89.60;99867.31;5112954;28;20043;-69
2023/11/28 00:42:05;;;;;;;13.10;12.00;;;6.60;99.90;;;6.74;89.24;99883.91;5094756;28;20047;-69
2023/11/28 00:44:35;;;;;;;12.73;11.63;;;6.60;99.90;;;6.70;88.84;99892.66;5094726;28;20065;-70
2023/11/28 00:47:04;;;;;;;11.93;10.93;;;6.70;99.90;;;6.68;88.70;99891.84;5112676;28;20561;-69
2023/11/28 00:49:33;;;;;;;11.80;10.80;;;6.60;99.90;;;6.53;88.58;99884.00;5111665;28;20043;-69
2023/11/28 00:52:01;;;;;;;11.70;10.70;;;6.50;99.90;;;6.63;88.30;99898.84;5097243;28;20043;-69
2023/11/28 00:54:29;;;;;;;11.15;10.25;;;6.60;99.90;;;6.62;88.22;99897.13;5116521;28;20450;-69
2023/11/28 00:56:58;;;;;;;11.07;10.13;;;6.60;99.90;;;6.64;88.12;99908.50;5098391;28;20051;-69
2023/11/28 00:59:26;;;;;;;11.90;10.70;;;6.60;99.90;;;6.50;87.79;99918.16;5116349;28;20085;-69
2023/11/28 01:01:56;;;;;;;11.20;10.20;;;6.50;99.90;;;6.38;87.79;99922.59;5116173;28;20067;-69
2023/11/28 01:04:25;;;;;;;11.05;10.15;;;6.40;99.90;;;6.28;88.32;99922.59;5116977;28;20051;-69
2023/11/28 01:06:53;;;;;;;11.52;10.52;;;6.30;99.90;;;6.31;88.61;99923.47;5116575;28;20043;-69
2023/11/28 01:09:22;;;;;;;11.43;10.50;;;6.30;99.90;;;5.83;88.79;99829.09;5116549;28;20047;-69
2023/11/28 01:11:50;;;;;;;11.98;10.98;;;6.40;99.90;;;6.44;88.66;99939.19;5116494;28;20449;-70
2023/11/28 01:14:19;;;;;;;10.68;9.80;;;6.40;99.90;;;6.48;88.42;99948.81;5116364;28;20106;-69
2023/11/28 01:16:48;;;;;;;11.50;10.50;;;6.40;99.90;;;6.44;88.42;99947.06;5098087;28;20039;-69
2023/11/28 01:19:18;;;;;;;11.18;10.13;;;6.40;99.90;;;6.48;88.45;99954.94;5097903;28;20169;-69
2023/11/28 01:21:46;;;;;;;10.82;9.93;;;6.40;99.90;;;6.42;88.10;99952.34;5116344;28;20134;-69
2023/11/28 01:24:15;;;;;;;11.00;10.10;;;6.40;99.90;;;6.54;87.96;99961.94;5098149;28;20446;-69
2023/11/28 01:26:43;;;;;;;12.00;11.00;;;6.50;99.90;;;6.55;88.26;99974.16;5097945;28;20059;-69
2023/11/28 01:29:12;;;;;;;12.43;11.32;;;6.40;99.90;;;6.55;88.76;99974.16;5097774;28;20079;-69
2023/11/28 01:31:41;;;;;;;14.35;12.85;;;6.50;99.90;;;6.50;88.67;99978.56;5116089;28;20039;-69
2023/11/28 01:34:09;;;;;;;14.05;12.75;;;6.50;99.90;;;6.50;89.36;99975.94;5115881;28;20050;-69
2023/11/28 01:36:46;;;;;;;15.43;13.82;;;6.40;99.90;;;6.48;89.36;99989.09;5116045;28;20104;-69
2023/11/28 01:39:16;;;;;;;13.98;12.65;;;6.50;99.90;;;6.43;88.94;99995.25;5097586;28;20052;-69
2023/11/28 01:41:47;;;;;;;14.00;12.65;;;6.40;99.90;;;6.47;89.30;99996.94;5115896;28;20043;-69
2023/11/28 01:44:18;;;;;;;13.95;12.65;;;6.40;99.90;;;6.46;89.73;100005.72;5097567;28;20497;-69
2023/11/28 01:46:47;;;;;;;15.05;12.98;;;6.40;99.90;;;6.41;89.76;99997.00;5097610;28;20051;-69
2023/11/28 01:49:15;;;;;;;13.75;12.43;;;6.40;99.90;;;6.50;89.46;100010.09;5097411;28;20046;-69
2023/11/28 01:51:45;;;;;;;13.23;12.02;;;6.40;99.90;;;6.39;89.68;100025.84;5115640;28;20048;-69
2023/11/28 01:54:17;;;;;;;12.20;11.10;;;6.30;99.90;;;6.45;89.47;100020.59;5115705;28;20169;-69
2023/11/28 01:56:45;;;;;;;11.18;10.13;;;6.30;99.90;;;6.35;88.86;100021.47;5115704;28;20035;-69
2023/11/28 01:59:15;;;;;;;11.57;10.48;;;6.30;99.90;;;6.29;88.68;100035.50;5097204;28;20031;-69
2023/11/28 02:01:46;;;;;;;10.63;9.73;;;6.30;99.90;;;6.33;89.06;100025.84;5096563;28;20070;-69
2023/11/28 02:04:15;;;;;;;10.35;9.38;;;6.30;99.90;;;6.30;88.57;100050.41;5097121;28;20082;-69
2023/11/28 02:06:46;;;;;;;10.80;9.80;;;6.20;99.90;;;6.32;88.65;100061.78;5097140;28;20043;-69
2023/11/28 02:09:15;;;;;;;11.23;9.95;;;6.30;99.90;;;6.28;88.89;100061.75;5097109;28;20454;-69
2023/11/28 02:11:44;;;;;;;10.73;9.63;;;6.30;99.90;;;6.30;89.01;100073.16;5115258;28;20051;-69
2023/11/28 02:14:12;;;;;;;10.93;9.82;;;6.30;99.90;;;6.29;89.15;100071.41;5096962;28;20063;-69
2023/11/28 02:16:40;;;;;;;10.57;9.52;;;6.20;99.90;;;6.36;88.86;100081.03;5096851;28;20100;-69
2023/11/28 02:19:09;;;;;;;10.30;9.30;;;6.30;99.90;;;6.31;88.43;100086.25;5096899;28;20047;-69
2023/11/28 02:21:37;;;;;;;9.48;8.48;;;6.30;99.90;;;6.24;88.51;100088.88;5114633;28;20063;-69
2023/11/28 02:24:11;;;;;;;11.82;9.93;;;6.30;99.90;;;6.25;88.46;100083.63;5115100;28;20039;-69
2023/11/28 02:26:41;;;;;;;9.85;8.82;;;6.20;99.90;;;6.31;88.26;100096.78;5096696;28;20568;-69
2023/11/28 02:29:10;;;;;;;10.13;9.13;;;6.30;99.90;;;6.34;87.90;100107.28;5114636;28;20063;-69
2023/11/28 02:31:38;;;;;;;11.25;9.30;;;6.30;99.90;;;6.31;87.60;100101.13;5114874;28;20404;-69
2023/11/28 02:34:07;;;;;;;11.07;9.73;;;6.30;99.90;;;6.24;87.51;100113.41;5114784;28;20039;-69
2023/11/28 02:36:35;;;;;;;9.70;8.70;;;6.20;99.90;;;6.26;87.51;100114.28;5114754;28;20050;-69
2023/11/28 02:39:04;;;;;;;10.98;9.32;;;6.20;99.90;;;6.10;87.31;100117.75;5114727;28;20040;-69
2023/11/28 02:41:33;;;;;;;12.55;9.25;;;6.20;99.90;;;6.06;86.92;100109.88;5096300;28;20051;-69
2023/11/28 02:44:02;;;;;;;10.10;9.13;;;6.10;99.90;;;6.07;86.68;100128.28;5114308;28;20115;-69
2023/11/28 02:46:31;;;;;;;12.98;9.63;;;6.10;99.90;;;6.07;86.92;100137.88;5096289;28;20077;-69
2023/11/28 02:49:00;;;;;;;10.15;9.10;;;6.10;99.90;;;5.94;86.67;100144.00;5114212;28;20051;-69
2023/11/28 02:51:28;;;;;;;8.85;7.95;;;6.00;99.90;;;5.91;86.76;100151.84;5114537;28;20047;-69
2023/11/28 02:53:57;;;;;;;9.55;8.57;;;5.80;99.90;;;5.88;85.85;100150.09;5096101;28;20048;-69
2023/11/28 02:56:25;;;;;;;11.82;8.75;;;5.90;99.90;;;5.88;85.43;100150.09;5114129;28;20478;-69
2023/11/28 02:58:56;;;;;;;9.70;7.90;;;5.80;99.90;;;5.65;84.80;100122.00;5114091;28;20043;-69
2023/11/28 03:01:26;;;;;;;9.13;8.20;;;5.80;99.90;;;5.81;85.01;100145.66;5095724;28;20112;-69
2023/11/28 03:03:55;;;;;;;8.60;7.80;;;5.80;99.90;;;5.69;84.69;100174.47;5114570;28;20089;-70
2023/11/28 03:06:24;;;;;;;8.90;8.10;;;5.70;99.90;;;5.78;84.34;100174.53;5114160;28;20063;-70
2023/11/28 03:08:52;;;;;;;9.65;8.50;;;5.70;99.90;;;5.78;83.96;100181.50;5114207;28;20434;-69
2023/11/28 03:11:21;;;;;;;13.63;8.68;;;5.70;99.90;;;5.62;83.78;100167.44;5095771;28;20059;-70
2023/11/28 03:13:49;;;;;;;9.02;7.60;;;5.70;99.90;;;5.60;83.98;100173.56;5113746;28;20039;-70
2023/11/28 03:16:17;;;;;;;8.40;7.65;;;5.60;99.90;;;5.66;83.80;100181.44;5113760;28;20522;-70
2023/11/28 03:18:47;;;;;;;7.38;6.68;;;5.70;99.90;;;5.66;83.57;100192.81;5095630;28;20051;-70
2023/11/28 03:21:16;;;;;;;7.97;7.28;;;5.60;99.90;;;5.70;83.28;100186.72;5113849;28;20055;-70
2023/11/28 03:23:44;;;;;;;7.65;6.95;;;5.70;99.90;;;5.66;83.11;100170.97;5095646;28;20040;-70
2023/11/28 03:26:12;;;;;;;6.88;6.18;;;5.70;99.90;;;5.49;81.82;100178.75;5114177;28;20529;-69
2023/11/28 03:28:41;;;;;;;7.32;6.00;;;5.50;99.90;;;5.54;81.69;100187.50;5095568;28;20504;-70
2023/11/28 03:31:09;;;;;;;7.18;6.47;;;5.50;99.90;;;5.48;81.51;100197.97;5113799;28;20040;-70
2023/11/28 03:33:38;;;;;;;8.30;6.00;;;5.50;99.90;;;5.46;81.93;100189.22;5113490;28;20442;-69
2023/11/28 03:36:17;;;;;;;6.70;6.10;;;5.40;99.90;;;5.45;81.71;100195.34;5095466;28;20120;-70
2023/11/28 03:38:48;;;;;;;7.45;6.53;;;5.40;99.90;;;5.52;81.67;100202.38;5113684;28;20043;-70
2023/11/28 03:41:17;;;;;;;8.18;6.03;;;5.40;99.90;;;5.43;81.24;100202.34;5113569;28;20040;-69
2023/11/28 03:43:45;;;;;;;7.20;5.70;;;5.40;99.90;;;4.57;81.03;100053.34;5113343;28;20043;-69
2023/11/28 03:46:15;;;;;;;6.88;6.10;;;5.40;99.90;;;5.49;80.51;100210.22;5095194;28;20092;-69
2023/11/28 03:48:44;;;;;;;9.27;6.05;;;5.50;99.90;;;5.40;80.24;100210.19;5113231;28;20461;-70
2023/11/28 03:51:13;;;;;;;6.20;5.60;;;5.40;99.90;;;5.34;80.36;100215.41;5113490;28;20043;-69
2023/11/28 03:53:42;;;;;;;6.22;5.35;;;5.30;99.90;;;5.23;79.78;100211.81;5113405;28;20400;-69
2023/11/28 03:56:12;;;;;;;6.22;5.47;;;5.30;99.90;;;5.35;79.76;100227.63;5095126;28;20108;-70
2023/11/28 03:58:42;;;;;;;6.17;5.57;;;5.30;99.90;;;5.40;80.04;100247.75;5113434;28;20055;-69
2023/11/28 04:01:10;;;;;;;6.97;5.38;;;5.30;99.90;;;5.02;79.26;100164.50;5094718;28;20055;-70
2023/11/28 04:03:39;;;;;;;5.47;4.97;;;5.40;99.90;;;5.35;79.07;100235.50;5113374;28;20101;-69
2023/11/28 04:06:09;;;;;;;5.50;5.00;;;5.30;99.90;;;5.30;78.99;100239.84;5113045;28;20035;-69
2023/11/28 04:08:39;;;;;;;5.25;4.85;;;5.30;99.90;;;5.23;78.65;100251.13;5095043;28;20480;-69
2023/11/28 04:11:10;;;;;;;5.38;4.88;;;5.20;99.90;;;5.27;78.84;100251.19;5094793;28;20050;-69
2023/11/28 04:13:39;;;;;;;7.13;5.10;;;5.20;99.90;;;5.26;78.01;100238.06;5113588;28;20051;-69
2023/11/28 04:16:08;;;;;;;5.50;5.00;;;5.20;99.90;;;5.10;77.94;100259.78;5094948;28;20093;-69
2023/11/28 04:18:37;;;;;;;7.68;5.13;;;5.20;99.90;;;4.42;77.54;100125.66;5094880;28;20043;-69
2023/11/28 04:21:07;;;;;;;5.30;4.65;;;5.20;99.90;;;5.18;77.74;100266.84;5113042;28;20052;-69
2023/11/28 04:23:35;;;;;;;4.88;4.53;;;5.20;99.90;;;4.98;77.72;100225.63;5094804;28;20048;-70
2023/11/28 04:26:06;;;;;;;5.67;5.07;;;5.20;99.90;;;5.15;77.81;100265.97;5116048;28;20097;-69
2023/11/28 04:28:35;;;;;;;5.47;4.93;;;5.10;99.90;;;5.12;77.53;100277.28;5098994;28;20082;-69
2023/11/28 04:31:06;;;;;;;5.57;5.07;;;5.10;99.90;;;5.13;77.28;100275.53;5098911;28;20043;-69
2023/11/28 04:33:37;;;;;;;5.37;4.87;;;5.10;99.90;;;4.96;77.31;100254.44;5098842;28;20488;-69
2023/11/28 04:36:08;;;;;;;4.80;4.40;;;5.10;99.90;;;4.99;77.28;100285.03;5098750;28;20048;-69
2023/11/28 04:38:36;;;;;;;4.95;4.35;;;5.00;99.90;;;4.96;77.73;100287.59;5098693;28;20055;-70
2023/11/28 04:41:07;;;;;;;6.23;5.13;;;5.00;99.90;;;5.04;78.18;100296.41;5098555;28;20047;-69
2023/11/28 04:43:36;;;;;;;5.33;4.83;;;5.00;99.90;;;4.45;78.20;100196.38;5098626;28;20096;-69
2023/11/28 04:46:06;;;;;;;5.73;5.13;;;5.00;99.90;;;4.95;78.26;100306.84;5098547;28;20047;-69
2023/11/28 04:48:34;;;;;;;6.77;5.70;;;4.90;99.90;;;4.95;78.56;100305.09;5098652;28;20514;-70
2023/11/28 04:51:03;;;;;;;5.80;5.20;;;4.90;99.90;;;4.88;78.84;100307.66;5098529;28;20122;-69
2023/11/28 04:53:32;;;;;;;5.80;5.17;;;4.90;99.90;;;4.81;78.33;100305.81;5098490;28;20151;-70
2023/11/28 04:56:00;;;;;;;7.77;6.60;;;4.90;99.90;;;4.97;78.61;100319.09;5098417;28;20051;-69
2023/11/28 04:58:34;;;;;;;6.53;5.27;;;4.90;99.90;;;5.00;78.50;100326.97;5098422;28;20051;-70
2023/11/28 05:01:03;;;;;;;5.65;4.90;;;5.00;99.90;;;5.07;78.90;100335.78;5094786;28;20842;-69
2023/11/28 05:03:32;;;;;;;5.80;5.22;;;5.00;99.90;;;5.01;78.79;100330.47;5096151;28;20050;-69
2023/11/28 05:06:01;;;;;;;6.22;5.72;;;5.00;99.90;;;4.87;78.73;100334.69;5096179;28;20126;-71
2023/11/28 05:08:29;;;;;;;5.20;4.80;;;4.90;99.90;;;4.75;79.15;100351.16;5096449;28;20047;-70
2023/11/28 05:10:58;;;;;;;6.68;4.85;;;4.90;99.90;;;4.96;79.08;100350.50;5094752;28;20044;-70
2023/11/28 05:13:27;;;;;;;5.77;4.80;;;4.90;99.90;;;4.82;79.01;100308.44;5094747;28;20102;-70
2023/11/28 05:15:57;;;;;;;5.83;5.30;;;4.90;99.90;;;5.09;79.36;100342.75;5096026;28;20089;-70
2023/11/28 05:18:25;;;;;;;7.22;5.03;;;5.00;99.90;;;4.98;79.12;100341.78;5094723;28;20040;-70
2023/11/28 05:20:54;;;;;;;5.57;4.85;;;5.00;99.90;;;5.19;79.06;100365.56;5094541;28;20054;-70
2023/11/28 05:23:23;;;;;;;5.47;5.03;;;5.10;99.90;;;5.21;79.06;100381.31;5095841;28;20433;-71
2023/11/28 05:25:52;;;;;;;5.20;4.80;;;5.20;99.90;;;5.18;78.49;100376.06;5094794;28;20405;-70
2023/11/28 05:28:20;;;;;;;5.38;4.88;;;5.10;99.90;;;5.23;79.20;100377.84;5094397;28;20290;-70
2023/11/28 05:30:49;;;;;;;6.93;5.25;;;5.20;99.90;;;5.35;78.97;100380.59;5095734;28;20036;-70
2023/11/28 05:33:19;;;;;;;5.45;5.05;;;5.20;99.90;;;5.30;78.61;100379.66;5094305;28;20489;-70
2023/11/28 05:35:47;;;;;;;6.53;5.38;;;5.20;99.90;;;5.35;78.65;100383.19;5094314;28;20071;-69
2023/11/28 05:38:16;;;;;;;5.95;5.13;;;5.20;99.90;;;5.31;78.80;100380.53;5093554;28;20455;-70
2023/11/28 05:40:45;;;;;;;5.23;4.73;;;5.20;99.90;;;5.31;78.71;100381.41;5093917;28;20060;-70
2023/11/28 05:43:13;;;;;;;5.00;4.60;;;5.30;99.90;;;5.33;78.50;100387.56;5094052;28;20044;-70
2023/11/28 05:45:42;;;;;;;6.07;4.88;;;5.30;99.90;;;5.27;78.47;100368.25;5094410;28;20105;-70
2023/11/28 05:48:11;;;;;;;5.20;4.63;;;5.30;99.90;;;5.37;78.54;100397.22;5094087;28;20435;-70
2023/11/28 05:50:41;;;;;;;6.20;5.03;;;5.30;99.90;;;4.69;78.01;100295.22;5094002;28;20044;-70
2023/11/28 05:53:09;;;;;;;5.32;4.80;;;5.30;99.90;;;5.43;78.53;100399.00;5093992;28;20051;-70
2023/11/28 05:55:37;;;;;;;5.50;5.00;;;5.30;99.90;;;5.42;78.32;100399.84;5093845;28;20052;-70
2023/11/28 05:58:06;;;;;;;5.72;5.20;;;5.30;99.90;;;5.28;78.73;100389.25;5093852;28;20075;-70
2023/11/28 06:00:35;;;;;;;6.22;4.80;;;5.30;99.90;;;5.44;78.96;100405.97;5093512;28;20056;-70
2023/11/28 06:03:04;;;;;;;5.57;5.15;;;5.30;99.90;;;5.44;78.53;100398.13;5093715;28;20097;-70
2023/11/28 06:05:33;;;;;;;5.70;5.20;;;5.30;99.90;;;5.45;78.60;100399.88;5093700;28;20489;-70
2023/11/28 06:08:05;;;;;;;5.00;4.55;;;5.30;99.90;;;5.42;78.80;100402.47;5093680;28;20048;-70
2023/11/28 06:10:34;;;;;;;6.88;5.22;;;5.40;99.90;;;5.41;78.57;100409.47;5093406;28;20105;-70
2023/11/28 06:13:04;;;;;;;5.32;4.82;;;5.30;99.90;;;5.36;78.35;100413.78;5094912;28;20511;-70
2023/11/28 06:15:33;;;;;;;5.25;4.85;;;5.30;99.90;;;5.05;77.47;100427.47;5093526;28;20455;-70
2023/11/28 06:18:01;;;;;;;8.32;5.45;;;5.10;99.90;;;4.75;78.99;100429.75;5093458;28;20047;-70
2023/11/28 06:20:30;;;;;;;5.15;4.75;;;4.70;99.90;;;4.94;78.75;100434.34;5093488;28;20562;-70
2023/11/28 06:22:58;;;;;;;7.40;5.07;;;4.70;99.90;;;4.86;78.58;100435.13;5093312;28;20040;-70
2023/11/28 06:25:28;;;;;;;5.10;4.60;;;4.70;99.90;;;4.92;78.48;100443.03;5094991;28;20150;-69
2023/11/28 06:27:56;;;;;;;6.15;5.55;;;4.70;99.90;;;4.88;78.57;100429.03;5093320;28;20448;-70
2023/11/28 06:30:25;;;;;;;5.60;5.10;;;4.90;99.90;;;5.07;79.00;100451.09;5094325;28;20500;-70
2023/11/28 06:32:55;;;;;;;5.68;5.28;;;5.00;99.90;;;5.11;79.06;100447.63;5094288;28;20040;-70
2023/11/28 06:35:24;;;;;;;5.47;5.05;;;5.00;99.90;;;5.12;79.81;100454.63;5093127;28;20032;-70
2023/11/28 06:37:53;;;;;;;5.80;5.30;;;5.00;99.90;;;5.13;79.77;100457.25;5093116;28;20048;-69
2023/11/28 06:40:21;;;;;;;6.03;5.27;;;5.00;99.90;;;5.04;79.77;100438.81;5094187;28;20044;-69
2023/11/28 06:42:51;;;;;;;5.53;5.03;;;5.00;99.90;;;5.12;79.85;100463.38;5094280;28;20109;-69
2023/11/28 06:45:20;;;;;;;5.53;5.13;;;4.90;99.90;;;5.12;79.67;100467.72;5094300;28;20052;-70
2023/11/28 06:47:49;;;;;;;6.25;5.65;;;4.90;99.90;;;5.17;79.98;100469.53;5092514;28;20090;-69
2023/11/28 06:50:18;;;;;;;5.65;5.15;;;4.90;99.90;;;5.11;79.87;100468.59;5093577;28;20052;-69
2023/11/28 06:52:46;;;;;;;6.68;5.20;;;4.90;99.90;;;5.10;80.13;100464.22;5094038;28;20154;-69
2023/11/28 06:55:15;;;;;;;6.10;5.60;;;5.00;99.90;;;5.15;80.12;100470.41;5093739;28;20063;-70
2023/11/28 06:57:47;;;;;;;6.72;5.20;;;5.00;99.90;;;5.17;80.11;100485.25;5092981;28;20476;-69
2023/11/28 07:00:18;;;;;;;6.68;5.90;;;5.00;99.90;;;5.20;79.91;100492.28;5096961;28;20138;-70
2023/11/28 07:02:46;;;;;;;5.97;5.13;;;5.00;99.90;;;5.14;80.11;100489.59;5113894;28;20043;-70
2023/11/28 07:05:16;;;;;;;6.63;5.50;;;5.00;99.90;;;5.25;80.42;100498.44;5113858;28;20122;-70
2023/11/28 07:07:45;;;;;;;6.72;6.05;;;5.00;99.90;;;5.27;79.90;100517.69;5114377;28;20071;-70
2023/11/28 07:10:13;;;;;;;7.43;5.87;;;5.10;99.90;;;5.32;80.00;100510.78;5095738;28;20416;-70
2023/11/28 07:12:41;;;;;;;5.60;5.10;;;5.10;99.90;;;5.32;80.07;100516.88;5113730;28;20158;-70
2023/11/28 07:15:10;;;;;;;7.10;5.87;;;5.10;99.90;;;5.24;80.08;100507.19;5113837;28;20487;-70
2023/11/28 07:17:40;;;;;;;6.63;5.97;;;5.10;99.90;;;5.36;79.98;100528.31;5113640;28;20043;-70
2023/11/28 07:20:11;;;;;;;6.18;5.57;;;5.20;99.90;;;5.36;79.99;100523.06;5114199;28;20048;-70
2023/11/28 07:22:40;;;;;;;5.78;5.28;;;5.20;99.90;;;5.35;80.14;100523.91;5113536;28;20496;-69
2023/11/28 07:25:09;;;;;;;4.90;4.50;;;5.20;99.90;;;5.36;80.20;100531.78;5113413;28;20130;-69
2023/11/28 07:27:37;;;;;;;6.70;5.70;;;5.20;99.90;;;4.44;79.80;100370.91;5113393;28;20040;-70
2023/11/28 07:30:08;;;;;;;7.68;5.53;;;5.20;99.90;;;5.35;79.71;100537.91;5113470;28;20040;-70
2023/11/28 07:32:36;;;;;;;7.35;5.43;;;5.20;99.90;;;5.34;80.01;100530.88;5113480;28;20039;-70
2023/11/28 07:35:08;;;;;;;7.30;5.60;;;5.20;99.90;;;5.31;79.56;100540.47;5113529;28;20114;-69
2023/11/28 07:37:38;;;;;;;7.78;6.30;;;5.20;99.90;;;5.47;80.39;100545.03;5095313;28;20068;-69
2023/11/28 07:40:09;;;;;;;9.27;5.38;;;5.30;99.90;;;5.20;80.09;100523.75;5113284;28;20089;-69
2023/11/28 07:42:37;;;;;;;;;;;5.40;99.90;;;5.57;80.44;100548.63;5113558;28;20485;-70
2023/11/28 07:45:06;;;;;;;7.78;5.18;;;5.40;99.90;;;5.66;79.81;100552.22;5113126;28;19919;-69
2023/11/28 07:47:35;;;;;;;8.63;6.40;;;5.50;99.90;;;5.68;79.15;100553.13;5113356;28;20408;-70
2023/11/28 07:50:04;;;;;;;7.57;6.05;;;5.50;99.90;;;5.53;77.93;100552.06;5113104;28;20503;-70
2023/11/28 07:52:34;;;;;;;6.45;5.72;;;5.40;99.90;;;5.14;78.61;100560.34;5095025;28;20059;-70
2023/11/28 07:55:04;;;;;;;6.78;5.63;;;5.10;99.90;;;5.31;78.75;100564.06;5113382;28;20096;-71
2023/11/28 07:57:32;;;;;;;7.28;5.03;;;5.10;99.90;;;5.60;79.50;100553.88;5113622;28;20096;-70
2023/11/28 08:00:02;;;;;;;6.07;5.45;;;5.40;99.90;;;5.94;80.58;100574.41;5112500;28;20093;-69
2023/11/28 08:02:39;;;;;;;6.90;5.63;;;5.70;99.90;;;6.12;80.12;100559.69;5113061;28;20051;-70
2023/11/28 08:05:09;;;;;;;8.25;5.40;;;6.10;99.90;;;6.38;79.66;100578.28;5113245;28;20068;-70
2023/11/28 08:07:42;;;;;;;7.95;5.50;;;6.20;99.90;;;6.60;78.70;100584.56;5113076;28;20515;-70
2023/11/28 08:10:11;;;;;;;9.23;5.75;;;6.40;99.90;;;6.98;77.84;100593.56;5113211;28;20100;-69
2023/11/28 08:12:40;;;;;;;6.35;5.40;;;6.70;99.90;;;7.34;76.79;100588.47;5112952;28;20046;-69
2023/11/28 08:15:09;;;;;;;7.75;5.70;;;7.20;99.90;;;7.77;75.62;100593.00;5112892;28;20431;-69
2023/11/28 08:17:38;;;;;;;6.38;5.78;;;7.60;99.90;;;8.05;73.68;100594.78;5094910;28;20089;-69
2023/11/28 08:20:08;;;;;;;6.10;5.13;;;7.90;99.90;;;8.34;72.52;100604.53;5112876;28;20460;-70
2023/11/28 08:22:36;;;;;;;5.20;4.40;;;8.20;99.90;;;7.66;71.20;100464.88;5112644;28;20060;-70
2023/11/28 08:25:07;;;;;;;9.77;5.38;;;8.40;99.90;;;8.54;70.03;100598.34;5112637;28;20075;-70
2023/11/28 08:27:36;;;;;;;5.38;4.82;;;8.50;99.90;;;8.71;69.11;100616.81;5113123;28;20043;-69
2023/11/28 08:30:06;;;;;;;5.95;4.80;;;8.60;99.90;;;8.93;68.95;100605.34;5112676;28;20048;-69
2023/11/28 08:32:34;;;;;;;6.80;4.95;;;8.80;99.90;;;9.18;68.71;100614.06;5112973;28;20043;-70
2023/11/28 08:35:04;;;;;;;8.20;5.03;;;9.10;99.90;;;9.42;67.87;100617.50;5112973;28;20044;-69
2023/11/28 08:37:32;;;;;;;7.82;4.88;;;9.30;99.90;;;9.61;67.26;100623.59;5113089;28;20074;-70
2023/11/28 08:40:01;;;;;;;6.00;4.60;;;9.50;99.90;;;9.66;67.08;100601.53;5112734;28;20552;-70
2023/11/28 08:42:30;;;;;;;5.95;5.07;;;9.70;99.90;;;10.04;66.50;100639.19;5112644;28;20480;-69
2023/11/28 08:45:01;;;;;;;7.22;5.28;;;10.00;99.90;;;10.21;66.45;100640.88;5112809;28;20048;-69
2023/11/28 08:47:29;;;;;;;6.75;5.35;;;10.10;99.90;;;10.26;65.73;100652.31;5112706;28;20043;-69
2023/11/28 08:49:59;;;;;;;5.80;5.10;;;10.20;99.90;;;10.42;66.12;100661.88;5112534;28;20063;-70
2023/11/28 08:52:29;;;;;;;8.63;5.10;;;10.30;99.90;;;10.67;64.88;100666.97;5112607;28;20036;-70
2023/11/28 08:54:59;;;;;;;7.40;4.50;;;10.50;99.90;;;10.85;64.00;100669.47;5113026;28;20059;-70
2023/11/28 08:57:34;;;;;;;6.15;4.60;;;10.80;99.90;;;11.14;63.86;100674.50;5112425;28;20105;-70
2023/11/28 09:00:03;;;;;;;6.78;4.40;;;11.00;99.90;;;11.39;62.19;100673.34;5112901;28;20040;-69
2023/11/28 09:02:33;;;;;;;6.15;4.60;;;11.30;99.90;;;11.42;61.83;100670.66;5112647;28;20044;-69
2023/11/28 09:05:02;;;;;;;9.70;4.88;;;11.50;99.90;;;11.63;60.94;100681.00;5112809;28;20035;-70
2023/11/28 09:07:30;;;;;;;6.03;4.88;;;11.60;99.90;;;12.07;61.17;100679.59;5112615;28;20047;-70
2023/11/28 09:09:58;;;;;;;6.28;4.20;;;11.90;99.90;;;12.19;60.32;100685.63;5112979;28;20088;-70
2023/11/28 09:12:27;;;;;;;7.53;4.60;;;12.00;99.90;;;12.39;59.47;100685.31;5096032;28;20048;-69
2023/11/28 09:14:57;;;;;;;5.55;4.43;;;12.20;99.90;;;12.67;58.73;100679.59;5116754;28;20051;-70
2023/11/28 09:17:26;;;;;;;5.50;4.20;;;12.50;99.90;;;12.66;57.76;100684.91;5116352;28;20390;-70
2023/11/28 09:19:54;;;;;;;8.07;5.00;;;12.50;99.90;;;12.80;57.94;100680.25;5116414;28;20043;-70
2023/11/28 09:22:23;;;;;;;7.72;5.05;;;12.60;99.90;;;12.57;57.07;100683.28;5116047;28;20047;-70
2023/11/28 09:24:52;;;;;;;7.43;4.47;;;12.40;99.90;;;12.62;57.43;100668.16;5115859;28;20096;-70
2023/11/28 09:27:20;;;;;;;7.28;5.35;;;12.50;99.90;;;12.87;57.69;100689.88;5115784;28;20047;-70
2023/11/28 09:29:48;;;;;;;5.93;4.70;;;12.60;99.90;;;13.10;57.09;100693.06;5115451;28;20036;-70
2023/11/28 09:32:22;;;;;;;6.63;4.80;;;12.80;99.90;;;13.39;56.19;100703.16;5115773;28;20128;-70
2023/11/28 09:34:51;;;;;;;6.70;5.05;;;13.10;99.90;;;13.50;55.43;100710.00;5116534;28;20046;-70
2023/11/28 09:37:19;;;;;;;8.05;4.78;;;13.30;99.90;;;13.00;53.77;100706.47;5115665;28;20046;-70
2023/11/28 09:39:48;;;;;;;9.07;4.82;;;12.90;99.90;;;12.82;54.40;100718.25;5116143;28;20069;-70
2023/11/28 09:42:19;;;;;;;9.93;5.38;;;12.60;99.90;;;12.52;54.89;100724.06;5115527;28;20065;-70
2023/11/28 09:44:49;;;;;;;4.85;4.38;;;12.30;99.90;;;12.77;55.30;100724.53;5115494;28;20048;-70
2023/11/28 09:47:20;;;;;;;5.82;4.70;;;12.40;99.90;;;12.81;55.73;100721.84;5115836;28;20051;-70
2023/11/28 09:49:56;;;;;;;6.60;4.80;;;12.50;99.90;;;13.28;54.63;100719.28;5097496;28;20100;-70
2023/11/28 09:52:25;;;;;;;5.07;4.55;;;12.90;99.90;;;13.45;52.40;100745.56;5115529;28;20040;-70
2023/11/28 09:54:54;;;;;;;5.05;4.18;;;13.20;99.90;;;13.50;51.58;100717.09;5115706;28;20100;-70
2023/11/28 09:57:25;;;;;;;5.22;4.47;;;13.30;99.90;;;13.33;50.45;100720.09;5115284;28;20044;-70
2023/11/28 09:59:54;;;;;;;6.07;4.40;;;13.20;99.90;;;12.98;49.69;100705.63;5115388;28;20126;-70
2023/11/28 10:02:27;;;;;;;6.03;4.50;;;12.90;99.90;;;13.35;51.99;100723.59;5097042;28;20089;-70
2023/11/28 10:04:57;;;;;;;5.95;4.65;;;13.00;99.90;;;13.34;51.83;100724.47;5115170;28;20074;-70
2023/11/28 10:07:33;;;;;;;11.05;4.63;;;13.10;99.90;;;12.85;50.89;100723.53;5097108;28;20051;-70
2023/11/28 10:10:08;;;;;;;6.20;4.63;;;12.80;99.90;;;12.22;51.87;100725.34;5115039;28;20097;-70
2023/11/28 10:12:36;;;;;;;8.65;4.63;;;12.10;99.90;;;12.27;53.35;100726.16;5097003;28;20114;-70
2023/11/28 10:15:07;;;;;;;9.30;4.60;;;12.00;99.90;;;11.86;52.71;100723.19;5096830;28;20048;-70
2023/11/28 10:17:37;;;;;;;5.13;4.68;;;11.60;99.90;;;11.88;54.40;100728.44;5096911;28;20427;-70
2023/11/28 10:20:08;;;;;;;5.30;4.50;;;11.60;99.90;;;11.62;54.26;100705.75;5096886;28;20044;-70
2023/11/28 10:22:37;;;;;;;6.25;4.60;;;11.50;99.90;;;11.81;54.81;100727.63;5114926;28;20474;-70
2023/11/28 10:25:09;;;;;;;6.28;4.90;;;11.50;99.90;;;11.76;54.90;100719.75;5115017;28;20039;-70
2023/11/28 10:27:39;;;;;;;6.47;5.00;;;11.60;99.90;;;11.73;55.35;100724.19;5096790;28;20435;-70
2023/11/28 10:30:13;;;;;;;5.45;4.82;;;11.60;99.90;;;11.74;54.63;100726.84;5114946;28;20160;-70
2023/11/28 10:32:41;;;;;;;7.38;5.35;;;11.60;99.90;;;11.97;55.89;100741.59;5114645;28;20073;-70